sensor_id;sensor_type;location;lat;lon;timestamp;pressure;altitude;pressure_sealevel;temperature;humidity
10348;BME280;5220;43.192;23.284;2022-10-16T00:01:34;97741.19;;;11.74;69.93
10348;BME280;5220;43.192;23.284;2022-10-16T00:04:01;97750.22;;;11.68;69.60
10348;BME280;5220;43.192;23.284;2022-10-16T00:06:29;97750.81;;;11.73;69.21
10348;BME280;5220;43.192;23.284;2022-10-16T00:09:03;97746.31;;;11.75;68.84
10348;BME280;5220;43.192;23.284;2022-10-16T00:11:32;97747.88;;;11.78;68.79
10348;BME280;5220;43.192;23.284;2022-10-16T00:14:03;97742.78;;;11.76;68.96
10348;BME280;5220;43.192;23.284;2022-10-16T00:16:30;97743.06;;;11.72;69.63
10348;BME280;5220;43.192;23.284;2022-10-16T00:22:20;97741.09;;;11.61;70.06
10348;BME280;5220;43.192;23.284;2022-10-16T00:24:47;97742.91;;;11.61;69.76
10348;BME280;5220;43.192;23.284;2022-10-16T00:27:13;97740.38;;;11.59;69.96
10348;BME280;5220;43.192;23.284;2022-10-16T00:29:52;97745.59;;;11.59;70.46
10348;BME280;5220;43.192;23.284;2022-10-16T00:32:25;97743.72;;;11.61;69.88
10348;BME280;5220;43.192;23.284;2022-10-16T00:34:53;97743.72;;;11.61;70.18
10348;BME280;5220;43.192;23.284;2022-10-16T00:37:28;97748.84;;;11.63;69.94
10348;BME280;5220;43.192;23.284;2022-10-16T00:40:20;97747.81;;;11.65;69.76
10348;BME280;5220;43.192;23.284;2022-10-16T00:42:47;97752.94;;;11.67;69.22
10348;BME280;5220;43.192;23.284;2022-10-16T00:48:36;97758.97;;;11.67;68.56
10348;BME280;5220;43.192;23.284;2022-10-16T00:51:28;97757.31;;;11.66;69.69
10348;BME280;5220;43.192;23.284;2022-10-16T00:53:59;97749.69;;;11.63;68.82
10348;BME280;5220;43.192;23.284;2022-10-16T00:56:33;97754.13;;;11.61;68.89
10348;BME280;5220;43.192;23.284;2022-10-16T00:59:11;97752.47;;;11.60;68.92
10348;BME280;5220;43.192;23.284;2022-10-16T01:01:53;97751.66;;;11.60;68.81
10348;BME280;5220;43.192;23.284;2022-10-16T01:04:21;97750.81;;;11.59;68.79
10348;BME280;5220;43.192;23.284;2022-10-16T01:06:56;97751.00;;;11.56;68.47
10348;BME280;5220;43.192;23.284;2022-10-16T01:09:32;97749.31;;;11.55;68.83
10348;BME280;5220;43.192;23.284;2022-10-16T01:12:40;97746.63;;;11.57;69.21
10348;BME280;5220;43.192;23.284;2022-10-16T01:15:25;97763.19;;;11.56;69.15
10348;BME280;5220;43.192;23.284;2022-10-16T01:18:00;97762.53;;;11.52;69.79
10348;BME280;5220;43.192;23.284;2022-10-16T01:20:51;97761.94;;;11.49;68.62
10348;BME280;5220;43.192;23.284;2022-10-16T01:23:38;97769.00;;;11.47;69.53
10348;BME280;5220;43.192;23.284;2022-10-16T01:26:44;97769.09;;;11.45;68.96
10348;BME280;5220;43.192;23.284;2022-10-16T01:29:51;97764.16;;;11.41;69.08
10348;BME280;5220;43.192;23.284;2022-10-16T01:32:26;97761.97;;;11.34;69.40
10348;BME280;5220;43.192;23.284;2022-10-16T01:34:59;97761.50;;;11.28;69.91
10348;BME280;5220;43.192;23.284;2022-10-16T01:44:16;97761.44;;;11.15;70.17
10348;BME280;5220;43.192;23.284;2022-10-16T01:46:50;97770.00;;;11.17;70.35
10348;BME280;5220;43.192;23.284;2022-10-16T01:49:20;97775.28;;;11.16;70.30
10348;BME280;5220;43.192;23.284;2022-10-16T01:51:53;97771.00;;;11.15;70.45
10348;BME280;5220;43.192;23.284;2022-10-16T01:54:23;97766.56;;;11.17;70.51
10348;BME280;5220;43.192;23.284;2022-10-16T01:56:54;97769.16;;;11.17;70.00
10348;BME280;5220;43.192;23.284;2022-10-16T01:59:28;97771.38;;;11.23;69.96
10348;BME280;5220;43.192;23.284;2022-10-16T02:02:00;97772.22;;;11.23;70.36
10348;BME280;5220;43.192;23.284;2022-10-16T02:04:38;97766.19;;;11.23;69.80
10348;BME280;5220;43.192;23.284;2022-10-16T02:07:07;97768.66;;;11.24;69.74
10348;BME280;5220;43.192;23.284;2022-10-16T02:09:35;97770.34;;;11.25;69.47
10348;BME280;5220;43.192;23.284;2022-10-16T02:12:08;97773.03;;;11.24;69.04
10348;BME280;5220;43.192;23.284;2022-10-16T02:14:38;97776.59;;;11.23;68.76
10348;BME280;5220;43.192;23.284;2022-10-16T02:17:12;97773.03;;;11.24;69.17
10348;BME280;5220;43.192;23.284;2022-10-16T02:19:41;97780.75;;;11.25;68.83
10348;BME280;5220;43.192;23.284;2022-10-16T02:22:35;97780.97;;;11.22;69.18
10348;BME280;5220;43.192;23.284;2022-10-16T02:25:07;97782.44;;;11.12;67.87
10348;BME280;5220;43.192;23.284;2022-10-16T02:31:02;97791.09;;;11.13;69.25
10348;BME280;5220;43.192;23.284;2022-10-16T02:33:35;97796.31;;;11.13;68.53
10348;BME280;5220;43.192;23.284;2022-10-16T02:36:04;97800.69;;;11.12;68.42
10348;BME280;5220;43.192;23.284;2022-10-16T02:38:50;97802.44;;;11.12;68.01
10348;BME280;5220;43.192;23.284;2022-10-16T02:41:18;97803.41;;;11.11;68.78
10348;BME280;5220;43.192;23.284;2022-10-16T02:43:45;97802.63;;;11.09;68.63
10348;BME280;5220;43.192;23.284;2022-10-16T02:46:37;97806.19;;;11.08;68.65
10348;BME280;5220;43.192;23.284;2022-10-16T02:55:15;97797.81;;;11.03;69.30
10348;BME280;5220;43.192;23.284;2022-10-16T03:00:52;97802.28;;;11.01;69.10
10348;BME280;5220;43.192;23.284;2022-10-16T03:03:18;97808.41;;;11.00;69.00
10348;BME280;5220;43.192;23.284;2022-10-16T03:05:45;97807.69;;;10.98;69.21
10348;BME280;5220;43.192;23.284;2022-10-16T03:08:21;97815.47;;;10.98;69.83
10348;BME280;5220;43.192;23.284;2022-10-16T03:11:08;97812.88;;;10.98;69.37
10348;BME280;5220;43.192;23.284;2022-10-16T03:13:35;97809.72;;;10.93;69.95
10348;BME280;5220;43.192;23.284;2022-10-16T03:16:01;97810.66;;;10.92;70.21
10348;BME280;5220;43.192;23.284;2022-10-16T03:18:30;97812.69;;;10.87;69.89
10348;BME280;5220;43.192;23.284;2022-10-16T03:20:57;97808.59;;;10.83;69.78
10348;BME280;5220;43.192;23.284;2022-10-16T03:23:24;97809.44;;;10.83;69.69
10348;BME280;5220;43.192;23.284;2022-10-16T03:25:50;97803.28;;;10.84;70.24
10348;BME280;5220;43.192;23.284;2022-10-16T03:28:20;97812.78;;;10.85;70.00
10348;BME280;5220;43.192;23.284;2022-10-16T03:30:47;97811.88;;;10.86;70.13
10348;BME280;5220;43.192;23.284;2022-10-16T03:33:14;97822.16;;;10.88;70.28
10348;BME280;5220;43.192;23.284;2022-10-16T03:35:40;97808.22;;;10.89;69.85
10348;BME280;5220;43.192;23.284;2022-10-16T03:41:29;97817.72;;;10.90;69.85
10348;BME280;5220;43.192;23.284;2022-10-16T03:43:57;97821.97;;;10.91;69.16
10348;BME280;5220;43.192;23.284;2022-10-16T03:46:32;97809.91;;;10.90;69.60
10348;BME280;5220;43.192;23.284;2022-10-16T03:52:16;97830.91;;;10.87;68.52
10348;BME280;5220;43.192;23.284;2022-10-16T03:58:05;97831.25;;;10.80;69.07
10348;BME280;5220;43.192;23.284;2022-10-16T04:00:33;97836.41;;;10.82;69.27
10348;BME280;5220;43.192;23.284;2022-10-16T04:03:00;97844.19;;;10.82;69.47
10348;BME280;5220;43.192;23.284;2022-10-16T04:12:11;97834.41;;;10.71;70.09
10348;BME280;5220;43.192;23.284;2022-10-16T04:14:37;97828.56;;;10.68;69.34
10348;BME280;5220;43.192;23.284;2022-10-16T04:17:05;97836.47;;;10.66;69.44
10348;BME280;5220;43.192;23.284;2022-10-16T04:22:54;97845.00;;;10.68;69.76
10348;BME280;5220;43.192;23.284;2022-10-16T04:25:20;97843.53;;;10.64;70.36
10348;BME280;5220;43.192;23.284;2022-10-16T04:31:09;97846.94;;;10.65;69.84
10348;BME280;5220;43.192;23.284;2022-10-16T04:33:37;97842.50;;;10.67;70.49
10348;BME280;5220;43.192;23.284;2022-10-16T04:36:04;97846.03;;;10.66;69.50
10348;BME280;5220;43.192;23.284;2022-10-16T04:41:52;97849.84;;;10.60;70.01
10348;BME280;5220;43.192;23.284;2022-10-16T04:47:41;97856.91;;;10.58;69.43
10348;BME280;5220;43.192;23.284;2022-10-16T04:50:09;97856.06;;;10.58;70.00
10348;BME280;5220;43.192;23.284;2022-10-16T04:52:36;97860.44;;;10.57;70.08
10348;BME280;5220;43.192;23.284;2022-10-16T04:55:03;97856.13;;;10.56;69.71
10348;BME280;5220;43.192;23.284;2022-10-16T05:00:52;97860.59;;;10.54;69.71
10348;BME280;5220;43.192;23.284;2022-10-16T05:03:19;97858.84;;;10.55;70.56
10348;BME280;5220;43.192;23.284;2022-10-16T05:05:47;97863.38;;;10.51;70.10
10348;BME280;5220;43.192;23.284;2022-10-16T05:08:51;97856.59;;;10.49;70.78
10348;BME280;5220;43.192;23.284;2022-10-16T05:11:18;97859.28;;;10.47;70.67
10348;BME280;5220;43.192;23.284;2022-10-16T05:13:44;97861.03;;;10.47;70.94
10348;BME280;5220;43.192;23.284;2022-10-16T05:16:11;97869.50;;;10.50;71.23
10348;BME280;5220;43.192;23.284;2022-10-16T05:19:10;97877.13;;;10.53;71.30
10348;BME280;5220;43.192;23.284;2022-10-16T05:21:39;97878.09;;;10.52;71.68
10348;BME280;5220;43.192;23.284;2022-10-16T05:24:05;97872.88;;;10.52;70.88
10348;BME280;5220;43.192;23.284;2022-10-16T05:26:32;97881.59;;;10.51;71.10
10348;BME280;5220;43.192;23.284;2022-10-16T05:29:07;97882.50;;;10.50;71.99
10348;BME280;5220;43.192;23.284;2022-10-16T05:31:33;97885.22;;;10.49;72.22
10348;BME280;5220;43.192;23.284;2022-10-16T05:34:01;97892.19;;;10.48;72.27
10348;BME280;5220;43.192;23.284;2022-10-16T05:36:28;97892.00;;;10.51;71.31
10348;BME280;5220;43.192;23.284;2022-10-16T05:39:14;97904.91;;;10.53;72.50
10348;BME280;5220;43.192;23.284;2022-10-16T05:41:41;97899.63;;;10.54;71.42
10348;BME280;5220;43.192;23.284;2022-10-16T05:44:08;97900.56;;;10.53;71.88
10348;BME280;5220;43.192;23.284;2022-10-16T05:46:35;97906.34;;;10.58;72.43
10348;BME280;5220;43.192;23.284;2022-10-16T05:49:32;97909.50;;;10.63;71.86
10348;BME280;5220;43.192;23.284;2022-10-16T05:51:59;97911.00;;;10.67;72.23
10348;BME280;5220;43.192;23.284;2022-10-16T05:54:27;97909.06;;;10.71;72.41
10348;BME280;5220;43.192;23.284;2022-10-16T05:56:53;97904.59;;;10.73;72.22
10348;BME280;5220;43.192;23.284;2022-10-16T05:59:20;97907.75;;;10.78;72.36
10348;BME280;5220;43.192;23.284;2022-10-16T06:01:47;97912.91;;;10.79;72.90
10348;BME280;5220;43.192;23.284;2022-10-16T06:04:14;97913.38;;;10.86;73.04
10348;BME280;5220;43.192;23.284;2022-10-16T06:06:41;97928.72;;;10.91;73.30
10348;BME280;5220;43.192;23.284;2022-10-16T06:09:09;97925.94;;;10.94;73.71
10348;BME280;5220;43.192;23.284;2022-10-16T06:11:37;97918.97;;;10.94;73.19
10348;BME280;5220;43.192;23.284;2022-10-16T06:14:04;97930.78;;;11.00;73.25
10348;BME280;5220;43.192;23.284;2022-10-16T06:16:32;97927.16;;;11.02;73.76
10348;BME280;5220;43.192;23.284;2022-10-16T06:22:21;97928.19;;;11.14;73.31
10348;BME280;5220;43.192;23.284;2022-10-16T06:24:47;97930.63;;;11.17;73.79
10348;BME280;5220;43.192;23.284;2022-10-16T06:27:16;97939.09;;;11.20;73.34
10348;BME280;5220;43.192;23.284;2022-10-16T06:29:43;97943.28;;;11.23;73.78
10348;BME280;5220;43.192;23.284;2022-10-16T06:32:10;97940.31;;;11.29;73.67
10348;BME280;5220;43.192;23.284;2022-10-16T06:34:37;97945.16;;;11.35;73.81
10348;BME280;5220;43.192;23.284;2022-10-16T06:37:05;97946.66;;;11.39;75.01
10348;BME280;5220;43.192;23.284;2022-10-16T06:39:32;97945.50;;;11.43;74.24
10348;BME280;5220;43.192;23.284;2022-10-16T06:41:58;97947.19;;;11.44;75.69
10348;BME280;5220;43.192;23.284;2022-10-16T06:44:26;97952.94;;;11.49;74.75
10348;BME280;5220;43.192;23.284;2022-10-16T06:46:53;97951.66;;;11.56;75.07
10348;BME280;5220;43.192;23.284;2022-10-16T06:49:20;97952.97;;;11.63;76.29
10348;BME280;5220;43.192;23.284;2022-10-16T06:51:48;97954.13;;;11.73;76.47
10348;BME280;5220;43.192;23.284;2022-10-16T06:54:15;97957.91;;;11.82;77.22
10348;BME280;5220;43.192;23.284;2022-10-16T06:56:43;97964.31;;;11.91;76.96
10348;BME280;5220;43.192;23.284;2022-10-16T06:59:10;97971.38;;;12.03;77.62
10348;BME280;5220;43.192;23.284;2022-10-16T07:01:38;97965.59;;;12.12;77.22
10348;BME280;5220;43.192;23.284;2022-10-16T07:04:05;97971.06;;;12.21;77.20
10348;BME280;5220;43.192;23.284;2022-10-16T07:06:33;97965.16;;;12.32;77.13
10348;BME280;5220;43.192;23.284;2022-10-16T07:09:02;97968.13;;;12.40;76.46
10348;BME280;5220;43.192;23.284;2022-10-16T07:11:30;97969.19;;;12.50;76.82
10348;BME280;5220;43.192;23.284;2022-10-16T07:13:57;97974.09;;;12.55;76.57
10348;BME280;5220;43.192;23.284;2022-10-16T07:16:26;97979.38;;;12.67;75.68
10348;BME280;5220;43.192;23.284;2022-10-16T07:19:05;97980.06;;;12.83;75.67
10348;BME280;5220;43.192;23.284;2022-10-16T07:21:35;97980.19;;;12.94;75.23
10348;BME280;5220;43.192;23.284;2022-10-16T07:30:46;97985.31;;;13.35;74.49
10348;BME280;5220;43.192;23.284;2022-10-16T07:33:13;97978.69;;;13.42;74.26
10348;BME280;5220;43.192;23.284;2022-10-16T07:35:49;97985.81;;;13.53;73.46
10348;BME280;5220;43.192;23.284;2022-10-16T07:45:19;97978.88;;;13.90;71.75
10348;BME280;5220;43.192;23.284;2022-10-16T07:47:45;97980.00;;;13.98;70.72
10348;BME280;5220;43.192;23.284;2022-10-16T07:50:12;97985.25;;;13.98;70.48
10348;BME280;5220;43.192;23.284;2022-10-16T07:52:40;97981.88;;;14.09;70.04
10348;BME280;5220;43.192;23.284;2022-10-16T07:55:08;97980.94;;;14.10;70.01
10348;BME280;5220;43.192;23.284;2022-10-16T07:57:36;97979.00;;;14.25;69.67
10348;BME280;5220;43.192;23.284;2022-10-16T08:00:03;97986.44;;;14.31;69.25
10348;BME280;5220;43.192;23.284;2022-10-16T08:02:31;97992.41;;;14.33;69.16
10348;BME280;5220;43.192;23.284;2022-10-16T08:04:58;97988.63;;;14.37;68.98
10348;BME280;5220;43.192;23.284;2022-10-16T08:07:24;97994.88;;;14.47;68.51
10348;BME280;5220;43.192;23.284;2022-10-16T08:09:52;97988.25;;;14.54;68.66
10348;BME280;5220;43.192;23.284;2022-10-16T08:12:21;97984.59;;;14.57;68.49
10348;BME280;5220;43.192;23.284;2022-10-16T08:14:48;97988.41;;;14.64;67.71
10348;BME280;5220;43.192;23.284;2022-10-16T08:17:15;97989.56;;;14.72;67.65
10348;BME280;5220;43.192;23.284;2022-10-16T08:19:44;97989.59;;;14.83;67.54
10348;BME280;5220;43.192;23.284;2022-10-16T08:22:11;97989.63;;;14.94;67.26
10348;BME280;5220;43.192;23.284;2022-10-16T08:24:38;97984.66;;;15.02;67.50
10348;BME280;5220;43.192;23.284;2022-10-16T08:27:06;97988.50;;;15.10;66.77
10348;BME280;5220;43.192;23.284;2022-10-16T08:29:34;97988.75;;;15.18;67.25
10348;BME280;5220;43.192;23.284;2022-10-16T08:32:01;97991.59;;;15.15;67.05
10348;BME280;5220;43.192;23.284;2022-10-16T08:34:30;97996.63;;;15.29;66.64
10348;BME280;5220;43.192;23.284;2022-10-16T08:36:56;98000.09;;;15.29;66.55
10348;BME280;5220;43.192;23.284;2022-10-16T08:39:23;97993.34;;;15.38;65.86
10348;BME280;5220;43.192;23.284;2022-10-16T08:42:04;97992.66;;;15.47;65.34
10348;BME280;5220;43.192;23.284;2022-10-16T08:45:08;97991.59;;;15.49;66.01
10348;BME280;5220;43.192;23.284;2022-10-16T08:47:47;97990.28;;;15.55;65.45
10348;BME280;5220;43.192;23.284;2022-10-16T08:50:20;97995.66;;;15.65;65.08
10348;BME280;5220;43.192;23.284;2022-10-16T08:52:48;97990.28;;;15.66;64.87
10348;BME280;5220;43.192;23.284;2022-10-16T08:55:28;97993.63;;;15.57;64.86
10348;BME280;5220;43.192;23.284;2022-10-16T08:57:57;97996.50;;;15.65;64.62
10348;BME280;5220;43.192;23.284;2022-10-16T09:00:26;97989.59;;;15.64;64.06
10348;BME280;5220;43.192;23.284;2022-10-16T09:02:59;98003.44;;;15.77;63.80
10348;BME280;5220;43.192;23.284;2022-10-16T09:05:45;97999.63;;;15.92;63.95
10348;BME280;5220;43.192;23.284;2022-10-16T09:08:21;97998.78;;;15.92;63.04
10348;BME280;5220;43.192;23.284;2022-10-16T09:10:57;98005.81;;;16.02;62.03
10348;BME280;5220;43.192;23.284;2022-10-16T09:13:29;97996.53;;;16.09;61.75
10348;BME280;5220;43.192;23.284;2022-10-16T09:16:09;97996.03;;;16.16;61.33
10348;BME280;5220;43.192;23.284;2022-10-16T09:18:43;98000.56;;;16.25;60.85
10348;BME280;5220;43.192;23.284;2022-10-16T09:21:15;98004.59;;;16.29;59.97
10348;BME280;5220;43.192;23.284;2022-10-16T09:23:44;98005.44;;;16.29;59.36
10348;BME280;5220;43.192;23.284;2022-10-16T09:26:13;98007.22;;;16.40;59.69
10348;BME280;5220;43.192;23.284;2022-10-16T09:31:48;98008.72;;;16.53;58.84
10348;BME280;5220;43.192;23.284;2022-10-16T09:34:20;98007.31;;;16.60;57.71
10348;BME280;5220;43.192;23.284;2022-10-16T09:36:50;98014.34;;;16.71;57.53
10348;BME280;5220;43.192;23.284;2022-10-16T09:39:18;98009.53;;;16.76;57.72
10348;BME280;5220;43.192;23.284;2022-10-16T09:41:45;98014.19;;;16.84;56.81
10348;BME280;5220;43.192;23.284;2022-10-16T09:44:19;98014.28;;;16.93;58.36
10348;BME280;5220;43.192;23.284;2022-10-16T09:47:02;98010.06;;;16.91;57.99
10348;BME280;5220;43.192;23.284;2022-10-16T09:49:29;98015.81;;;16.96;58.13
10348;BME280;5220;43.192;23.284;2022-10-16T09:52:04;98008.38;;;17.01;58.60
10348;BME280;5220;43.192;23.284;2022-10-16T09:54:33;98006.31;;;17.04;57.89
10348;BME280;5220;43.192;23.284;2022-10-16T09:57:10;98004.16;;;17.09;56.84
10348;BME280;5220;43.192;23.284;2022-10-16T09:59:46;97995.63;;;17.17;56.30
10348;BME280;5220;43.192;23.284;2022-10-16T10:02:15;97992.63;;;17.22;56.86
10348;BME280;5220;43.192;23.284;2022-10-16T10:04:48;97993.41;;;17.33;56.69
10348;BME280;5220;43.192;23.284;2022-10-16T10:07:21;97987.47;;;17.41;55.51
10348;BME280;5220;43.192;23.284;2022-10-16T10:09:49;97988.50;;;17.29;54.28
10348;BME280;5220;43.192;23.284;2022-10-16T10:12:19;97989.56;;;17.37;53.55
10348;BME280;5220;43.192;23.284;2022-10-16T10:14:47;97999.88;;;17.29;55.38
10348;BME280;5220;43.192;23.284;2022-10-16T10:17:19;97987.03;;;17.36;55.20
10348;BME280;5220;43.192;23.284;2022-10-16T10:19:51;97987.47;;;17.41;54.61
10348;BME280;5220;43.192;23.284;2022-10-16T10:22:31;97990.75;;;17.54;54.50
10348;BME280;5220;43.192;23.284;2022-10-16T10:25:14;97984.88;;;17.61;54.41
10348;BME280;5220;43.192;23.284;2022-10-16T10:30:37;97980.31;;;17.63;53.62
10348;BME280;5220;43.192;23.284;2022-10-16T10:33:19;97978.84;;;17.70;54.09
10348;BME280;5220;43.192;23.284;2022-10-16T10:35:52;97974.41;;;17.71;53.95
10348;BME280;5220;43.192;23.284;2022-10-16T10:54:41;97927.44;;;18.16;50.67
10348;BME280;5220;43.192;23.284;2022-10-16T10:57:17;97947.31;;;18.30;50.16
10348;BME280;5220;43.192;23.284;2022-10-16T11:00:10;97950.22;;;18.26;50.74
10348;BME280;5220;43.192;23.284;2022-10-16T11:02:48;97956.56;;;18.14;49.85
10348;BME280;5220;43.192;23.284;2022-10-16T11:05:30;97948.50;;;18.16;50.77
10348;BME280;5220;43.192;23.284;2022-10-16T11:08:02;97900.75;;;17.81;50.53
10348;BME280;5220;43.192;23.284;2022-10-16T11:10:44;97942.25;;;18.07;49.64
10348;BME280;5220;43.192;23.284;2022-10-16T11:13:21;97925.75;;;17.96;49.11
10348;BME280;5220;43.192;23.284;2022-10-16T11:15:53;97948.09;;;18.11;48.84
10348;BME280;5220;43.192;23.284;2022-10-16T11:18:52;97942.91;;;18.00;48.77
10348;BME280;5220;43.192;23.284;2022-10-16T11:35:12;97942.41;;;18.65;46.58
10348;BME280;5220;43.192;23.284;2022-10-16T11:37:44;97948.50;;;18.65;47.16
10348;BME280;5220;43.192;23.284;2022-10-16T11:40:19;97954.88;;;18.63;47.85
10348;BME280;5220;43.192;23.284;2022-10-16T11:42:53;97944.34;;;18.63;47.48
10348;BME280;5220;43.192;23.284;2022-10-16T11:45:28;97949.47;;;18.55;46.98
10348;BME280;5220;43.192;23.284;2022-10-16T11:51:26;97929.50;;;18.52;47.65
10348;BME280;5220;43.192;23.284;2022-10-16T11:54:02;97941.34;;;18.37;47.46
10348;BME280;5220;43.192;23.284;2022-10-16T11:56:32;97941.38;;;18.47;47.10
10348;BME280;5220;43.192;23.284;2022-10-16T12:02:30;97938.88;;;18.36;47.25
10348;BME280;5220;43.192;23.284;2022-10-16T12:05:10;97942.06;;;18.39;47.29
10348;BME280;5220;43.192;23.284;2022-10-16T12:07:47;97950.50;;;18.23;47.13
10348;BME280;5220;43.192;23.284;2022-10-16T12:10:21;97957.56;;;18.23;47.06
10348;BME280;5220;43.192;23.284;2022-10-16T12:16:23;97950.03;;;18.09;46.55
10348;BME280;5220;43.192;23.284;2022-10-16T12:22:18;97950.88;;;18.19;47.15
10348;BME280;5220;43.192;23.284;2022-10-16T12:24:51;97947.31;;;18.30;47.42
10348;BME280;5220;43.192;23.284;2022-10-16T12:30:41;97950.09;;;18.38;46.13
10348;BME280;5220;43.192;23.284;2022-10-16T12:33:20;97953.56;;;18.38;46.42
10348;BME280;5220;43.192;23.284;2022-10-16T12:35:52;97954.97;;;18.42;46.20
10348;BME280;5220;43.192;23.284;2022-10-16T12:41:42;97953.00;;;18.35;45.96
10348;BME280;5220;43.192;23.284;2022-10-16T12:44:23;97950.25;;;18.36;46.31
10348;BME280;5220;43.192;23.284;2022-10-16T12:46:51;97941.88;;;18.31;46.20
10348;BME280;5220;43.192;23.284;2022-10-16T12:49:23;97946.06;;;18.34;46.04
10348;BME280;5220;43.192;23.284;2022-10-16T12:51:56;97942.06;;;18.39;47.21
10348;BME280;5220;43.192;23.284;2022-10-16T12:54:27;97943.44;;;18.34;45.76
10348;BME280;5220;43.192;23.284;2022-10-16T12:57:28;97939.97;;;18.33;45.29
10348;BME280;5220;43.192;23.284;2022-10-16T13:00:21;97940.53;;;18.37;45.20
10348;BME280;5220;43.192;23.284;2022-10-16T13:03:21;97949.63;;;18.13;45.67
10348;BME280;5220;43.192;23.284;2022-10-16T13:06:20;97940.53;;;18.37;45.85
10348;BME280;5220;43.192;23.284;2022-10-16T13:09:16;97946.06;;;18.43;45.59
10348;BME280;5220;43.192;23.284;2022-10-16T13:11:58;97947.47;;;18.47;45.60
10348;BME280;5220;43.192;23.284;2022-10-16T13:15:01;97957.50;;;18.53;44.69
10348;BME280;5220;43.192;23.284;2022-10-16T13:17:57;97956.94;;;18.50;44.69
10348;BME280;5220;43.192;23.284;2022-10-16T13:24:00;97962.66;;;18.55;44.66
10348;BME280;5220;43.192;23.284;2022-10-16T13:29:59;97964.03;;;18.49;44.21
10348;BME280;5220;43.192;23.284;2022-10-16T13:32:27;97960.28;;;18.52;44.57
10348;BME280;5220;43.192;23.284;2022-10-16T13:34:54;97959.00;;;18.46;44.94
10348;BME280;5220;43.192;23.284;2022-10-16T13:37:41;97961.47;;;18.48;44.99
10348;BME280;5220;43.192;23.284;2022-10-16T13:40:20;97967.19;;;18.53;45.54
10348;BME280;5220;43.192;23.284;2022-10-16T13:43:04;97962.31;;;18.48;44.96
10348;BME280;5220;43.192;23.284;2022-10-16T14:23:35;97982.22;;;18.81;44.90
10348;BME280;5220;43.192;23.284;2022-10-16T14:26:22;97984.44;;;18.76;45.87
10348;BME280;5220;43.192;23.284;2022-10-16T14:29:02;97981.66;;;18.68;45.51
10348;BME280;5220;43.192;23.284;2022-10-16T14:31:32;97977.19;;;18.59;45.70
10348;BME280;5220;43.192;23.284;2022-10-16T14:34:24;97982.88;;;18.54;46.49
10348;BME280;5220;43.192;23.284;2022-10-16T14:37:24;97981.59;;;18.39;47.25
10348;BME280;5220;43.192;23.284;2022-10-16T14:39:59;97984.50;;;18.36;47.19
10348;BME280;5220;43.192;23.284;2022-10-16T14:42:28;97985.03;;;18.30;48.21
10348;BME280;5220;43.192;23.284;2022-10-16T14:44:56;97988.78;;;18.27;48.20
10348;BME280;5220;43.192;23.284;2022-10-16T14:47:24;97988.31;;;18.22;48.99
10348;BME280;5220;43.192;23.284;2022-10-16T14:49:53;97989.53;;;18.18;49.96
10348;BME280;5220;43.192;23.284;2022-10-16T14:52:21;97989.97;;;18.14;50.10
10348;BME280;5220;43.192;23.284;2022-10-16T14:54:48;97992.28;;;18.07;50.95
10348;BME280;5220;43.192;23.284;2022-10-16T14:57:18;97993.34;;;17.95;51.11
10348;BME280;5220;43.192;23.284;2022-10-16T14:59:47;97998.44;;;17.87;50.81
10348;BME280;5220;43.192;23.284;2022-10-16T15:02:20;97994.47;;;17.72;52.27
10348;BME280;5220;43.192;23.284;2022-10-16T15:04:50;98004.47;;;17.78;53.08
10348;BME280;5220;43.192;23.284;2022-10-16T15:07:17;98008.22;;;17.76;53.26
10348;BME280;5220;43.192;23.284;2022-10-16T15:09:44;98006.50;;;17.65;53.15
10348;BME280;5220;43.192;23.284;2022-10-16T15:12:35;98011.09;;;17.52;53.71
10348;BME280;5220;43.192;23.284;2022-10-16T15:15:25;98019.31;;;17.38;53.61
10348;BME280;5220;43.192;23.284;2022-10-16T15:17:54;98027.25;;;17.27;54.00
10348;BME280;5220;43.192;23.284;2022-10-16T15:20:23;98011.41;;;17.17;54.42
10348;BME280;5220;43.192;23.284;2022-10-16T15:22:50;98025.69;;;17.03;54.02
10348;BME280;5220;43.192;23.284;2022-10-16T15:25:27;98023.81;;;16.94;54.39
10348;BME280;5220;43.192;23.284;2022-10-16T15:27:59;98030.44;;;16.78;54.54
10348;BME280;5220;43.192;23.284;2022-10-16T15:30:27;98024.13;;;16.69;55.47
10348;BME280;5220;43.192;23.284;2022-10-16T15:32:54;98028.94;;;16.64;55.59
10348;BME280;5220;43.192;23.284;2022-10-16T15:35:21;98037.41;;;16.56;55.12
10348;BME280;5220;43.192;23.284;2022-10-16T15:41:21;98029.44;;;16.25;56.63
10348;BME280;5220;43.192;23.284;2022-10-16T15:43:52;98034.81;;;16.12;56.55
10348;BME280;5220;43.192;23.284;2022-10-16T15:46:21;98041.38;;;16.06;56.54
10348;BME280;5220;43.192;23.284;2022-10-16T15:48:50;98044.34;;;16.02;56.39
10348;BME280;5220;43.192;23.284;2022-10-16T15:51:18;98052.47;;;15.99;56.48
10348;BME280;5220;43.192;23.284;2022-10-16T15:53:45;98057.34;;;15.92;56.79
10348;BME280;5220;43.192;23.284;2022-10-16T15:56:13;98055.09;;;15.88;56.60
10348;BME280;5220;43.192;23.284;2022-10-16T16:05:24;98065.78;;;15.63;57.51
10348;BME280;5220;43.192;23.284;2022-10-16T16:11:22;98082.09;;;15.55;58.22
10348;BME280;5220;43.192;23.284;2022-10-16T16:14:10;98081.91;;;15.45;58.03
10348;BME280;5220;43.192;23.284;2022-10-16T16:16:38;98084.16;;;15.39;58.14
10348;BME280;5220;43.192;23.284;2022-10-16T16:22:23;98095.53;;;15.27;58.57
10348;BME280;5220;43.192;23.284;2022-10-16T16:24:50;98102.91;;;15.22;58.53
10348;BME280;5220;43.192;23.284;2022-10-16T16:27:17;98110.88;;;15.20;58.71
10348;BME280;5220;43.192;23.284;2022-10-16T16:29:46;98112.78;;;15.18;58.93
10348;BME280;5220;43.192;23.284;2022-10-16T16:32:46;98112.19;;;15.15;58.81
10348;BME280;5220;43.192;23.284;2022-10-16T16:41:40;98123.69;;;14.88;59.20
10348;BME280;5220;43.192;23.284;2022-10-16T16:44:29;98130.75;;;14.88;59.66
10348;BME280;5220;43.192;23.284;2022-10-16T16:46:56;98128.94;;;14.88;59.32
10348;BME280;5220;43.192;23.284;2022-10-16T16:52:31;98146.50;;;14.75;59.37
10348;BME280;5220;43.192;23.284;2022-10-16T16:55:16;98147.84;;;14.68;59.44